X  Blizu METAR Podaci o vazduhoplovstvu     LBPD Plovdiv International Airport
Temperatura
45°F Temperatura
45°F Tačka Rose
100% Vlaga



Vetar
7 MPS
11 KM/S
3 M/S
6 Čvorovi



80°
I
Trenutna situacija

Izmaglica Izmaglica
Vazdušni pritisak 1015.92 (hPa) - 30 (inHg)
Vidljivost 1.4 (Milje) - 2.2 (km)
Aerodrom
Aerodromski kod. LBPD

Lokacija: Plovdiv International Airport
Udaljenost: 14 (mi)

Metar:
LBPD 010630Z AUTO 08006KT 2200 BR OVC003/// 07/07 Q1016 TEMPO 1500 BR

Vreme: 01-03-2024 08:30 EET